Cordoba, Argentina

5:57 AM ART on July 23, 2014 (GMT -0300)
Ing Aeron Ambrosio Lv Taravell (SACO) Elev 1555 ft | 31.32 °S, 64.21 °W | Change Station

Current weather conditions updated 57 minutes ago

Scattered Clouds
Scattered Clouds
46 °F
Feels Like 41 °F
N
12
Wind Variable Wind from SSE

Today is forecast to be Cooler than yesterday.

Today
High -- | Low -- °F
--% Chance of Precip.
Yesterday
High -- | Low -- °F
Precip. -- in
8:10 AM 6:36 PM
Waning Crescent, 11% visible
Pressure 30.15 in
Visibility 6.2 miles
Clouds Few 3000 ft
Scattered Clouds 10000 ft
Windchill 41 °F
Dew Point 28 °F
Humidity 50%
Rainfall 0.00 in
Snow Depth Not available.
UV 0 out of 12
Pollen Not available.
Air Quality Not available.
Flu Activity Not available.
METAR SACO 230800Z 16010KT 9999 FEW030 SCT100 08/M02 Q1021

More Conditions Fewer Conditions

Pressure 30.15 in
Visibility 6.2 miles
Clouds Few 3000 ft
Scattered Clouds 10000 ft
Windchill 41 °F
Dew Point 28 °F
Humidity 50%
Rainfall 0.00 in
Snow Depth Not available.
UV 0 out of 12
Pollen Not available.
Air Quality Not available.
Flu Activity Not available.
METAR SACO 230800Z 16010KT 9999 FEW030 SCT100 08/M02 Q1021

More Conditions Fewer Conditions

10-Day Weather Forecast

Almanac

Astronomy

Jul. 23, 2014 Rise Set
Actual Time 8:10 AM ART 6:36 PM ART
Civil Twilight 7:44 AM ART 7:02 PM ART
Nautical Twilight 7:14 AM ART 7:32 PM ART
Astronomical Twilight 6:45 AM ART 8:01 PM ART
Moon 5:21 AM ART 4:05 PM ART
Length of Visible Light 11h 18m
Length of Day
10h 26m
Tomorrow will be 1m 10s longer.
Waning Crescent, 11% of the Moon is Illuminated
Today
Waning Crescent
Jul 26
New
Aug 3
First Quarter
Aug 10
Full
Aug 17
Last Quarter

Yesterday's Extremes

Country Highs Country Lows

Community

WunderPhotos

Upload Photos

1,736,529 photos uploaded!

Nearby

Snow Depth

Not available.

Earthquake Activity

City Distance Mag. Time & Date
No recent earthquake activity has been reported nearby.
Minimum magnitude displayed is 2.5.

Coastal Water Temperatures

Place Temperature
No Stations Reporting

Nearby Weather Stations

Station Location Temp. Windchill Dew Point Humidity Wind Precip. Elev Updated Type
Cuatro Hojas, Mendiolaza 46.6 °F 45 °F 33 °F 59% South  at  4.5 mph 0.00 in / hr 1886 ft 5:57 AM ART Rapid Fire
Defensa Civil Municipal 1, Córdoba 47.1 °F 44 °F 32 °F 56% South  at  6.0 mph 0.00 in / hr 1430 ft 5:55 AM ART Normal
Escuela Voler Parapente, La Calera 47.1 °F 47 °F 31 °F 53% SW  at  0.0 mph 0.00 in / hr 1686 ft 5:52 AM ART Normal
Ferreyra, Cordoba 47.4 °F 46 °F 32 °F 54% SSE  at  4.0 mph 0.00 in / hr 1335 ft 5:50 AM ART Normal
Colonia Caroya 46.2 °F 44 °F 36 °F 66% South  at  5.4 mph 0.00 in / hr 1706 ft 5:54 AM ART Normal

Show More Stations Show Fewer Stations